createdAt,value
2018-11-03T00:00:13.173Z,90.20
2018-11-03T00:01:16.684Z,90.20
2018-11-03T00:02:20.084Z,90.30
2018-11-03T00:03:23.481Z,90.30
2018-11-03T00:04:27.050Z,90.30
2018-11-03T00:05:30.447Z,90.40
2018-11-03T00:06:33.841Z,90.40
2018-11-03T00:07:37.219Z,90.50
2018-11-03T00:08:40.629Z,90.50
2018-11-03T00:09:44.018Z,90.50
2018-11-03T00:10:47.410Z,90.50
2018-11-03T00:11:50.817Z,90.50
2018-11-03T00:12:54.220Z,90.50
2018-11-03T00:13:57.628Z,90.50
2018-11-03T00:15:01.068Z,90.50
2018-11-03T00:16:04.587Z,90.80
2018-11-03T00:17:08.016Z,90.50
2018-11-03T00:18:11.450Z,90.40
2018-11-03T00:19:14.918Z,90.50
2018-11-03T00:20:18.336Z,90.50
2018-11-03T00:21:21.814Z,90.50
2018-11-03T00:22:25.230Z,90.50
2018-11-03T00:23:28.617Z,90.40
2018-11-03T00:24:32.045Z,90.40
2018-11-03T00:25:35.447Z,90.70
2018-11-03T00:26:38.823Z,90.40
2018-11-03T00:27:42.360Z,90.40
2018-11-03T00:28:45.809Z,90.40
2018-11-03T00:29:49.155Z,90.40
2018-11-03T00:30:52.537Z,90.40
2018-11-03T00:31:55.950Z,90.40
2018-11-03T00:32:59.340Z,90.40
2018-11-03T00:34:02.719Z,90.40
2018-11-03T00:35:06.309Z,90.40
2018-11-03T00:36:09.687Z,90.40
2018-11-03T00:37:13.321Z,90.40
2018-11-03T00:38:16.692Z,90.40
2018-11-03T00:39:20.078Z,90.40
2018-11-03T00:40:23.577Z,90.40
2018-11-03T00:41:26.930Z,90.40
2018-11-03T00:42:30.315Z,90.40
2018-11-03T00:43:33.710Z,90.40
2018-11-03T00:44:37.097Z,90.50
2018-11-03T00:45:40.528Z,90.50
2018-11-03T00:46:43.959Z,90.50
2018-11-03T00:47:47.429Z,90.50
2018-11-03T00:48:50.820Z,90.50
2018-11-03T00:49:54.222Z,90.60
2018-11-03T00:50:57.664Z,90.60
2018-11-03T00:52:01.058Z,90.60
2018-11-03T00:53:05.043Z,90.80
2018-11-03T00:54:08.400Z,90.50
2018-11-03T00:55:12.305Z,90.70
2018-11-03T00:56:15.725Z,90.70
2018-11-03T00:57:19.149Z,90.70
2018-11-03T00:58:22.535Z,90.70
2018-11-03T00:59:25.946Z,90.60
2018-11-03T01:00:29.327Z,90.60
2018-11-03T01:01:32.885Z,90.60
2018-11-03T01:02:36.268Z,90.70
2018-11-03T01:03:39.756Z,90.70
2018-11-03T01:04:43.143Z,90.70
2018-11-03T01:05:46.531Z,90.70
2018-11-03T01:06:49.911Z,90.70
2018-11-03T01:07:53.276Z,90.70
2018-11-03T01:08:56.669Z,90.70
2018-11-03T01:10:00.096Z,90.70
2018-11-03T01:11:03.481Z,90.70
2018-11-03T01:12:06.901Z,90.70
2018-11-03T01:13:10.281Z,90.70
2018-11-03T01:14:13.765Z,90.70
2018-11-03T01:15:18.253Z,90.80
2018-11-03T01:16:21.640Z,90.80
2018-11-03T01:17:25.040Z,90.80
2018-11-03T01:18:28.425Z,90.90
2018-11-03T01:19:31.812Z,90.90
2018-11-03T01:20:35.187Z,91.00
2018-11-03T01:21:38.623Z,91.00
2018-11-03T01:22:42.428Z,91.00
2018-11-03T01:23:45.866Z,90.90
2018-11-03T01:24:49.233Z,90.90
2018-11-03T01:25:52.633Z,90.90
2018-11-03T01:26:56.150Z,90.90
2018-11-03T01:27:59.603Z,90.80
2018-11-03T01:29:03.010Z,90.80
2018-11-03T01:30:10.535Z,90.80
2018-11-03T01:31:13.963Z,90.80
2018-11-03T01:32:17.376Z,90.70
2018-11-03T01:33:20.762Z,90.70
2018-11-03T01:34:24.153Z,90.70
2018-11-03T01:35:27.548Z,90.60
2018-11-03T01:36:30.926Z,90.60
2018-11-03T01:37:34.332Z,90.60
2018-11-03T01:38:37.896Z,90.60
2018-11-03T01:39:41.256Z,90.60
2018-11-03T01:40:44.617Z,90.50
2018-11-03T01:41:48.014Z,90.50
2018-11-03T01:42:51.419Z,90.50
2018-11-03T01:43:54.807Z,90.50
2018-11-03T01:44:58.192Z,90.50
2018-11-03T01:46:01.694Z,90.50
2018-11-03T01:47:05.544Z,90.50
2018-11-03T01:48:08.932Z,90.50
2018-11-03T01:49:12.339Z,90.50
2018-11-03T01:50:15.729Z,90.50
2018-11-03T01:51:19.203Z,90.50
2018-11-03T01:52:22.647Z,90.50
2018-11-03T01:53:26.040Z,90.50
2018-11-03T01:54:29.448Z,90.30
2018-11-03T01:55:32.820Z,90.70
2018-11-03T01:56:36.200Z,90.60
2018-11-03T01:57:39.559Z,90.60
2018-11-03T01:58:42.941Z,90.60
2018-11-03T01:59:46.355Z,90.60
2018-11-03T02:00:49.749Z,90.60
2018-11-03T02:01:53.139Z,90.60
2018-11-03T02:02:56.547Z,90.60
2018-11-03T02:03:59.968Z,90.60
2018-11-03T02:05:03.445Z,90.50
2018-11-03T02:06:06.831Z,90.50
2018-11-03T02:07:10.226Z,90.50
2018-11-03T02:08:13.608Z,90.50
2018-11-03T02:09:17.036Z,90.50
2018-11-03T02:10:20.460Z,90.50
2018-11-03T02:11:23.864Z,90.50
2018-11-03T02:12:27.253Z,90.50
2018-11-03T02:13:30.659Z,90.50
2018-11-03T02:14:34.033Z,90.50
2018-11-03T02:15:37.431Z,90.50
2018-11-03T02:16:40.874Z,90.60
2018-11-03T02:17:44.283Z,90.60
2018-11-03T02:18:47.682Z,90.60
2018-11-03T02:19:51.062Z,90.60
2018-11-03T02:20:54.476Z,90.60
2018-11-03T02:21:57.876Z,90.60
2018-11-03T02:23:01.296Z,90.90
2018-11-03T02:24:05.147Z,90.60
2018-11-03T02:25:08.911Z,90.60
2018-11-03T02:26:12.324Z,90.70
2018-11-03T02:27:15.719Z,90.70
2018-11-03T02:28:19.165Z,90.90
2018-11-03T02:29:22.760Z,90.70
2018-11-03T02:30:26.148Z,90.70
2018-11-03T02:31:29.572Z,90.70
2018-11-03T02:32:32.937Z,90.70
2018-11-03T02:33:36.321Z,90.70
2018-11-03T02:34:39.697Z,90.70
2018-11-03T02:35:43.069Z,90.70
2018-11-03T02:36:46.439Z,90.70
2018-11-03T02:37:49.808Z,90.70
2018-11-03T02:38:53.185Z,90.70
2018-11-03T02:39:56.559Z,90.70
2018-11-03T02:40:59.945Z,90.70
2018-11-03T02:42:03.339Z,90.70
2018-11-03T02:43:06.723Z,90.70
2018-11-03T02:44:10.525Z,90.80
2018-11-03T02:45:13.935Z,90.80
2018-11-03T02:46:17.317Z,90.80
2018-11-03T02:47:20.732Z,90.80
2018-11-03T02:48:24.100Z,90.80
2018-11-03T02:49:27.480Z,90.80
2018-11-03T02:50:30.889Z,90.80
2018-11-03T02:51:34.367Z,90.80
2018-11-03T02:52:37.837Z,90.80
2018-11-03T02:53:41.227Z,90.80
2018-11-03T02:54:44.608Z,90.80
2018-11-03T02:55:47.995Z,90.80
2018-11-03T02:56:51.389Z,90.70
2018-11-03T02:57:54.759Z,90.70
2018-11-03T02:58:58.133Z,90.70
2018-11-03T03:00:01.525Z,90.70
2018-11-03T03:01:04.976Z,90.70
2018-11-03T03:02:08.390Z,90.70
2018-11-03T03:03:11.783Z,90.70
2018-11-03T03:04:15.204Z,90.70
2018-11-03T03:05:18.568Z,90.80
2018-11-03T03:06:21.936Z,90.80
2018-11-03T03:07:25.472Z,90.80
2018-11-03T03:08:28.836Z,90.80
2018-11-03T03:09:32.228Z,90.80
2018-11-03T03:10:35.604Z,90.80
2018-11-03T03:11:38.982Z,90.80
2018-11-03T03:12:42.408Z,90.70
2018-11-03T03:13:45.793Z,90.70
2018-11-03T03:14:49.197Z,90.70
2018-11-03T03:15:52.626Z,90.70
2018-11-03T03:16:56.017Z,90.70
2018-11-03T03:17:59.394Z,90.70
2018-11-03T03:19:02.768Z,90.70
2018-11-03T03:20:07.733Z,90.70
2018-11-03T03:21:11.104Z,90.70
2018-11-03T03:22:14.507Z,90.70
2018-11-03T03:23:17.886Z,90.70
2018-11-03T03:24:21.260Z,90.60
2018-11-03T03:25:24.634Z,90.60
2018-11-03T03:26:28.033Z,90.60
2018-11-03T03:27:31.480Z,90.60
2018-11-03T03:28:34.865Z,90.60
2018-11-03T03:29:38.510Z,90.60
2018-11-03T03:30:41.810Z,90.60
2018-11-03T03:31:45.192Z,90.60
2018-11-03T03:32:48.601Z,90.60
2018-11-03T03:33:51.993Z,90.60
2018-11-03T03:34:55.405Z,90.50
2018-11-03T03:35:58.793Z,90.70
2018-11-03T03:37:02.193Z,90.50
2018-11-03T03:38:05.652Z,90.50
2018-11-03T03:39:10.004Z,90.50
2018-11-03T03:40:13.371Z,90.50
2018-11-03T03:41:16.764Z,90.50
2018-11-03T03:42:20.190Z,90.60
2018-11-03T03:43:23.596Z,90.60
2018-11-03T03:44:26.999Z,90.60
2018-11-03T03:45:30.372Z,90.60
2018-11-03T03:46:33.744Z,90.60
2018-11-03T03:47:37.133Z,90.60
2018-11-03T03:48:40.792Z,90.80
2018-11-03T03:49:44.294Z,90.90
2018-11-03T03:50:47.680Z,90.70
2018-11-03T03:51:51.177Z,90.70
2018-11-03T03:52:54.553Z,90.60
2018-11-03T03:53:57.956Z,90.70
2018-11-03T03:55:01.479Z,90.70
2018-11-03T03:56:04.930Z,90.70
2018-11-03T03:57:08.380Z,90.70
2018-11-03T03:58:12.002Z,90.80
2018-11-03T03:59:15.402Z,90.80
2018-11-03T04:00:18.773Z,90.80
2018-11-03T04:01:22.168Z,90.80
2018-11-03T04:02:25.567Z,90.80
2018-11-03T04:03:28.931Z,90.80
2018-11-03T04:04:32.350Z,90.80
2018-11-03T04:05:35.740Z,90.80
2018-11-03T04:06:39.177Z,90.80
2018-11-03T04:07:42.560Z,90.80
2018-11-03T04:08:45.931Z,90.90
2018-11-03T04:09:49.352Z,90.90
2018-11-03T04:10:52.733Z,90.90
2018-11-03T04:11:56.108Z,90.90
2018-11-03T04:12:59.501Z,91.00
2018-11-03T04:14:03.132Z,91.00
2018-11-03T04:15:06.823Z,91.00
2018-11-03T04:16:10.188Z,91.00
2018-11-03T04:17:13.590Z,91.00
2018-11-03T04:18:16.957Z,91.30
2018-11-03T04:19:20.349Z,91.00
2018-11-03T04:20:23.739Z,91.00
2018-11-03T04:21:29.228Z,91.00
2018-11-03T04:22:32.595Z,91.30
2018-11-03T04:23:36.000Z,91.10
2018-11-03T04:24:39.380Z,91.10
2018-11-03T04:25:43.477Z,91.10
2018-11-03T04:26:46.834Z,91.10
2018-11-03T04:27:50.230Z,91.10
2018-11-03T04:28:53.632Z,91.10
2018-11-03T04:29:57.017Z,91.10
2018-11-03T04:31:00.412Z,91.20
2018-11-03T04:32:03.810Z,91.10
2018-11-03T04:33:07.176Z,91.20
2018-11-03T04:34:10.568Z,91.20
2018-11-03T04:35:13.960Z,91.20
2018-11-03T04:36:17.355Z,91.20
2018-11-03T04:37:20.932Z,91.20
2018-11-03T04:38:24.316Z,91.10
2018-11-03T04:39:27.689Z,91.20
2018-11-03T04:40:31.089Z,91.20
2018-11-03T04:41:34.496Z,91.20
2018-11-03T04:42:37.859Z,91.20
2018-11-03T04:43:41.276Z,91.20
2018-11-03T04:44:44.848Z,91.20
2018-11-03T04:45:48.227Z,91.20
2018-11-03T04:46:51.653Z,91.20
2018-11-03T04:47:55.036Z,91.20
2018-11-03T04:49:02.580Z,91.20
2018-11-03T04:50:06.581Z,91.10
2018-11-03T04:51:09.976Z,91.20
2018-11-03T04:52:13.416Z,91.20
2018-11-03T04:53:16.817Z,91.20
2018-11-03T04:54:20.212Z,91.20
2018-11-03T04:55:23.718Z,91.20
2018-11-03T04:56:27.012Z,91.20
2018-11-03T04:57:30.404Z,91.20
2018-11-03T04:58:33.773Z,91.20
2018-11-03T04:59:37.185Z,91.20
2018-11-03T05:00:40.650Z,91.20
2018-11-03T05:01:44.068Z,91.20
2018-11-03T05:02:47.472Z,91.20
2018-11-03T05:03:50.938Z,91.20
2018-11-03T05:04:54.353Z,91.20
2018-11-03T05:05:57.744Z,91.20
2018-11-03T05:07:01.133Z,91.20
2018-11-03T05:08:04.717Z,91.20
2018-11-03T05:09:09.249Z,91.20
2018-11-03T05:10:12.754Z,91.20
2018-11-03T05:11:16.142Z,91.20
2018-11-03T05:12:19.556Z,91.30
2018-11-03T05:13:22.950Z,91.30
2018-11-03T05:14:26.364Z,91.30
2018-11-03T05:15:29.763Z,91.30
2018-11-03T05:16:33.163Z,91.40
2018-11-03T05:17:36.651Z,91.40
2018-11-03T05:18:40.368Z,91.40
2018-11-03T05:19:43.731Z,91.40
2018-11-03T05:20:47.100Z,91.40
2018-11-03T05:21:50.472Z,91.40
2018-11-03T05:22:53.874Z,91.40
2018-11-03T05:23:57.277Z,91.50
2018-11-03T05:25:00.711Z,91.50
2018-11-03T05:26:04.103Z,91.50
2018-11-03T05:27:07.484Z,91.60
2018-11-03T05:28:10.848Z,91.60
2018-11-03T05:29:14.247Z,91.60
2018-11-03T05:30:17.673Z,91.60
2018-11-03T05:31:22.083Z,91.80
2018-11-03T05:32:25.313Z,91.60
2018-11-03T05:33:28.715Z,91.60
2018-11-03T05:34:32.144Z,91.60
2018-11-03T05:35:35.531Z,91.60
2018-11-03T05:36:38.920Z,91.60
2018-11-03T05:37:42.298Z,91.60
2018-11-03T05:38:45.704Z,91.70
2018-11-03T05:39:49.119Z,91.70
2018-11-03T05:40:52.503Z,91.70
2018-11-03T05:41:55.864Z,91.70
2018-11-03T05:42:59.294Z,91.70
2018-11-03T05:44:02.703Z,91.70
2018-11-03T05:45:06.103Z,91.70
2018-11-03T05:46:09.509Z,91.70
2018-11-03T05:47:12.868Z,91.70
2018-11-03T05:48:16.264Z,92.00
2018-11-03T05:49:19.639Z,91.70
2018-11-03T05:50:23.036Z,91.70
2018-11-03T05:51:26.425Z,91.70
2018-11-03T05:52:29.781Z,91.80
2018-11-03T05:53:33.216Z,91.80
2018-11-03T05:54:36.613Z,91.80
2018-11-03T05:55:40.044Z,91.80
2018-11-03T05:56:43.425Z,91.80
2018-11-03T05:57:46.804Z,91.80
2018-11-03T05:58:50.254Z,91.80
2018-11-03T05:59:53.671Z,92.00
2018-11-03T06:00:57.085Z,91.70
2018-11-03T06:02:00.468Z,91.80
2018-11-03T06:03:03.839Z,91.80
2018-11-03T06:04:07.234Z,91.80
2018-11-03T06:05:10.611Z,91.80
2018-11-03T06:06:14.071Z,91.80
2018-11-03T06:07:17.450Z,91.80
2018-11-03T06:08:20.856Z,91.80
2018-11-03T06:09:24.270Z,91.80
2018-11-03T06:10:27.665Z,91.90
2018-11-03T06:11:31.088Z,91.80
2018-11-03T06:12:34.452Z,91.80
2018-11-03T06:13:37.861Z,91.80
2018-11-03T06:14:41.324Z,91.80
2018-11-03T06:15:44.857Z,91.80
2018-11-03T06:16:48.164Z,91.80
2018-11-03T06:17:51.563Z,91.90
2018-11-03T06:18:54.953Z,91.90
2018-11-03T06:19:58.384Z,91.90
2018-11-03T06:21:01.786Z,91.90
2018-11-03T06:22:05.291Z,91.90
2018-11-03T06:23:08.794Z,92.20
2018-11-03T06:24:12.136Z,91.90
2018-11-03T06:25:15.544Z,91.90
2018-11-03T06:26:18.923Z,91.90
2018-11-03T06:27:22.315Z,91.90
2018-11-03T06:28:25.695Z,91.90
2018-11-03T06:29:29.084Z,92.20
2018-11-03T06:30:32.470Z,92.10
2018-11-03T06:31:35.853Z,92.10
2018-11-03T06:32:39.935Z,91.80
2018-11-03T06:33:43.316Z,91.60
2018-11-03T06:34:46.691Z,91.80
2018-11-03T06:35:50.104Z,91.80
2018-11-03T06:36:53.505Z,91.80
2018-11-03T06:37:56.904Z,91.80
2018-11-03T06:39:00.342Z,91.80
2018-11-03T06:40:03.754Z,91.80
2018-11-03T06:41:07.164Z,91.80
2018-11-03T06:42:10.627Z,91.80
2018-11-03T06:43:14.049Z,91.80
2018-11-03T06:44:17.676Z,91.80
2018-11-03T06:45:21.117Z,91.80
2018-11-03T06:46:24.559Z,91.80
2018-11-03T06:47:27.983Z,91.80
2018-11-03T06:48:31.380Z,91.80
2018-11-03T06:49:34.772Z,91.70
2018-11-03T06:50:38.166Z,91.70
2018-11-03T06:51:41.570Z,91.60
2018-11-03T06:52:44.915Z,91.50
2018-11-03T06:53:48.312Z,91.50
2018-11-03T06:54:51.738Z,91.50
2018-11-03T06:55:55.124Z,91.40
2018-11-03T06:56:58.549Z,91.40
2018-11-03T06:58:02.200Z,91.30
2018-11-03T06:59:05.626Z,91.20
2018-11-03T07:00:09.894Z,91.20
2018-11-03T07:01:13.473Z,91.00
2018-11-03T07:02:16.893Z,91.20
2018-11-03T07:03:20.277Z,91.10
2018-11-03T07:04:23.695Z,91.10
2018-11-03T07:05:27.077Z,91.10
2018-11-03T07:06:30.487Z,91.10
2018-11-03T07:07:33.885Z,91.10
2018-11-03T07:08:37.281Z,91.00
2018-11-03T07:09:40.685Z,91.10
2018-11-03T07:10:44.068Z,91.10
2018-11-03T07:11:47.463Z,91.10
2018-11-03T07:12:50.912Z,91.10
2018-11-03T07:13:54.536Z,91.10
2018-11-03T07:14:57.963Z,91.10
2018-11-03T07:16:01.432Z,91.10
2018-11-03T07:17:04.960Z,91.20
2018-11-03T07:18:08.336Z,91.20
2018-11-03T07:19:11.758Z,91.20
2018-11-03T07:20:15.152Z,91.30
2018-11-03T07:21:18.700Z,91.30
2018-11-03T07:22:22.113Z,91.30
2018-11-03T07:23:25.691Z,91.40
2018-11-03T07:24:29.037Z,91.40
2018-11-03T07:25:32.480Z,91.40
2018-11-03T07:26:35.873Z,91.40
2018-11-03T07:27:39.261Z,91.40
2018-11-03T07:28:42.656Z,91.50
2018-11-03T07:29:46.111Z,91.60
2018-11-03T07:30:49.473Z,91.70
2018-11-03T07:31:52.866Z,91.60
2018-11-03T07:32:56.224Z,91.70
2018-11-03T07:33:59.617Z,91.70
2018-11-03T07:35:03.016Z,91.50
2018-11-03T07:36:06.440Z,91.80
2018-11-03T07:37:09.847Z,91.70
2018-11-03T07:38:13.217Z,91.70
2018-11-03T07:39:16.584Z,91.70
2018-11-03T07:40:19.984Z,91.70
2018-11-03T07:41:23.403Z,91.70
2018-11-03T07:42:26.792Z,91.70
2018-11-03T07:43:30.188Z,91.70
2018-11-03T07:44:33.552Z,91.70
2018-11-03T07:45:36.923Z,91.80
2018-11-03T07:46:40.412Z,92.10
2018-11-03T07:47:43.736Z,91.80
2018-11-03T07:48:47.327Z,91.80
2018-11-03T07:49:50.707Z,92.00
2018-11-03T07:50:54.108Z,91.80
2018-11-03T07:51:57.531Z,92.10
2018-11-03T07:53:00.943Z,91.80
2018-11-03T07:54:04.411Z,91.80
2018-11-03T07:55:09.345Z,91.80
2018-11-03T07:56:12.750Z,91.80
2018-11-03T07:57:16.167Z,91.80
2018-11-03T07:58:19.731Z,91.80
2018-11-03T07:59:23.108Z,91.80
2018-11-03T08:00:26.597Z,91.80
2018-11-03T08:01:29.893Z,91.80
2018-11-03T08:02:33.683Z,92.00
2018-11-03T08:03:37.073Z,91.90
2018-11-03T08:04:40.492Z,91.70
2018-11-03T08:05:43.857Z,91.60
2018-11-03T08:06:47.228Z,91.70
2018-11-03T08:07:50.616Z,91.70
2018-11-03T08:08:54.066Z,91.70
2018-11-03T08:09:57.385Z,91.80
2018-11-03T08:11:00.794Z,91.80
2018-11-03T08:12:04.213Z,91.70
2018-11-03T08:13:07.848Z,91.80
2018-11-03T08:14:11.278Z,91.80
2018-11-03T08:15:14.724Z,91.80
2018-11-03T08:16:18.112Z,91.80
2018-11-03T08:17:21.495Z,91.80
2018-11-03T08:18:24.933Z,91.80
2018-11-03T08:19:28.417Z,91.80
2018-11-03T08:20:31.824Z,91.80
2018-11-03T08:21:35.433Z,91.80
2018-11-03T08:22:39.238Z,91.90
2018-11-03T08:23:42.647Z,91.90
2018-11-03T08:24:46.053Z,91.90
2018-11-03T08:25:49.451Z,91.90
2018-11-03T08:26:52.911Z,91.90
2018-11-03T08:27:56.793Z,91.90
2018-11-03T08:29:00.230Z,91.90
2018-11-03T08:30:03.695Z,91.90
2018-11-03T08:31:07.116Z,91.90
2018-11-03T08:32:10.509Z,91.90
2018-11-03T08:33:13.894Z,91.90
2018-11-03T08:34:17.330Z,91.90
2018-11-03T08:35:21.624Z,91.90
2018-11-03T08:36:24.996Z,92.00
2018-11-03T08:37:28.453Z,92.00
2018-11-03T08:38:31.888Z,92.00
2018-11-03T08:39:35.335Z,92.10
2018-11-03T08:40:38.661Z,92.00
2018-11-03T08:41:42.053Z,92.10
2018-11-03T08:42:45.440Z,92.00
2018-11-03T08:43:48.812Z,92.10
2018-11-03T08:44:52.276Z,92.10
2018-11-03T08:45:55.660Z,92.00
2018-11-03T08:46:59.053Z,92.00
2018-11-03T08:48:02.492Z,92.00
2018-11-03T08:49:06.433Z,92.00
2018-11-03T08:50:11.276Z,92.00
2018-11-03T08:51:14.668Z,92.00
2018-11-03T08:52:18.083Z,92.00
2018-11-03T08:53:21.452Z,92.00
2018-11-03T08:54:24.893Z,92.00
2018-11-03T08:55:28.332Z,92.00
2018-11-03T08:56:31.900Z,92.00
2018-11-03T08:57:35.334Z,92.10
2018-11-03T08:58:38.736Z,92.00
2018-11-03T08:59:42.224Z,92.00
2018-11-03T09:00:45.573Z,92.00
2018-11-03T09:01:49.048Z,92.00
2018-11-03T09:02:52.504Z,92.00
2018-11-03T09:03:55.933Z,92.00
2018-11-03T09:04:59.313Z,91.90
2018-11-03T09:06:02.756Z,92.00
2018-11-03T09:07:06.323Z,91.90
2018-11-03T09:08:09.548Z,91.90
2018-11-03T09:09:12.934Z,91.90
2018-11-03T09:10:16.349Z,91.90
2018-11-03T09:11:19.776Z,92.00
2018-11-03T09:12:23.158Z,91.90
2018-11-03T09:13:26.540Z,91.80
2018-11-03T09:14:29.976Z,91.80
2018-11-03T09:15:33.352Z,91.80
2018-11-03T09:16:36.762Z,91.80
2018-11-03T09:17:41.069Z,92.10
2018-11-03T09:18:44.448Z,91.80
2018-11-03T09:19:47.888Z,91.80
2018-11-03T09:20:51.284Z,91.80
2018-11-03T09:21:54.736Z,91.80
2018-11-03T09:22:58.105Z,91.90
2018-11-03T09:24:01.614Z,91.90
2018-11-03T09:25:06.084Z,91.90
2018-11-03T09:26:09.464Z,91.90
2018-11-03T09:27:12.907Z,91.90
2018-11-03T09:28:16.351Z,91.90
2018-11-03T09:29:19.737Z,91.90
2018-11-03T09:30:23.167Z,92.00
2018-11-03T09:31:26.587Z,92.00
2018-11-03T09:32:30.025Z,91.90
2018-11-03T09:33:33.420Z,91.90
2018-11-03T09:34:36.889Z,91.90
2018-11-03T09:35:40.236Z,91.80
2018-11-03T09:36:43.625Z,91.90
2018-11-03T09:37:47.029Z,91.90
2018-11-03T09:38:50.436Z,91.90
2018-11-03T09:39:53.830Z,91.90
2018-11-03T09:40:57.223Z,91.80
2018-11-03T09:42:00.606Z,91.80
2018-11-03T09:43:04.145Z,91.80
2018-11-03T09:44:07.703Z,91.90
2018-11-03T09:45:12.026Z,91.90
2018-11-03T09:46:15.293Z,91.80
2018-11-03T09:47:18.700Z,91.80
2018-11-03T09:48:22.101Z,91.80
2018-11-03T09:49:25.508Z,91.80
2018-11-03T09:50:28.914Z,91.60
2018-11-03T09:51:32.320Z,91.70
2018-11-03T09:52:35.691Z,91.70
2018-11-03T09:53:39.089Z,91.70
2018-11-03T09:54:42.468Z,91.60
2018-11-03T09:55:45.848Z,91.60
2018-11-03T09:56:49.294Z,91.50
2018-11-03T09:57:52.633Z,91.50
2018-11-03T09:58:56.048Z,91.60
2018-11-03T09:59:59.453Z,91.50
2018-11-03T10:01:03.028Z,91.50
2018-11-03T10:02:06.410Z,91.50
2018-11-03T10:03:09.805Z,91.50
2018-11-03T10:04:13.221Z,91.50
2018-11-03T10:05:16.968Z,91.50
2018-11-03T10:06:20.450Z,91.40
2018-11-03T10:07:23.776Z,91.40
2018-11-03T10:08:27.220Z,91.40
2018-11-03T10:09:30.730Z,91.40
2018-11-03T10:10:34.124Z,91.40
2018-11-03T10:11:37.517Z,91.40
2018-11-03T10:12:41.172Z,91.50
2018-11-03T10:13:44.588Z,91.30
2018-11-03T10:14:47.976Z,91.20
2018-11-03T10:15:51.407Z,91.20
2018-11-03T10:16:54.792Z,91.00
2018-11-03T10:17:58.257Z,91.20
2018-11-03T10:19:01.678Z,91.20
2018-11-03T10:20:05.884Z,91.10
2018-11-03T10:21:09.264Z,91.00
2018-11-03T10:22:12.675Z,90.90
2018-11-03T10:23:16.044Z,90.90
2018-11-03T10:24:19.468Z,90.90
2018-11-03T10:25:22.899Z,90.80
2018-11-03T10:26:26.302Z,90.90
2018-11-03T10:27:29.679Z,90.70
2018-11-03T10:28:33.068Z,90.70
2018-11-03T10:29:36.480Z,90.70
2018-11-03T10:30:39.900Z,90.70
2018-11-03T10:31:43.287Z,90.70
2018-11-03T10:32:47.240Z,90.60
2018-11-03T10:33:50.734Z,90.60
2018-11-03T10:34:54.020Z,90.50
2018-11-03T10:35:57.427Z,90.50
2018-11-03T10:37:00.826Z,90.40
2018-11-03T10:38:04.214Z,90.30
2018-11-03T10:39:09.504Z,90.00
2018-11-03T10:40:14.870Z,90.00
2018-11-03T10:41:18.320Z,90.00
2018-11-03T10:42:21.752Z,90.00
2018-11-03T10:43:25.115Z,89.80
2018-11-03T10:44:28.488Z,89.60
2018-11-03T10:45:31.866Z,89.40
2018-11-03T10:46:35.410Z,89.40
2018-11-03T10:47:38.839Z,89.00
2018-11-03T10:48:42.402Z,89.00
2018-11-03T10:49:45.776Z,89.00
2018-11-03T10:50:49.141Z,89.00
2018-11-03T10:51:52.538Z,89.00
2018-11-03T10:52:55.972Z,89.00
2018-11-03T10:53:59.388Z,89.00
2018-11-03T10:55:02.763Z,89.10
2018-11-03T10:56:06.144Z,89.10
2018-11-03T10:57:10.259Z,88.70
2018-11-03T10:58:13.700Z,88.60
2018-11-03T10:59:17.104Z,88.60
2018-11-03T11:00:26.518Z,88.80
2018-11-03T11:01:35.378Z,88.80
2018-11-03T11:02:44.771Z,88.80
2018-11-03T11:03:53.621Z,88.80
2018-11-03T11:05:02.332Z,88.80
2018-11-03T11:06:11.321Z,88.70
2018-11-03T11:07:20.119Z,89.40
2018-11-03T11:08:28.853Z,88.70
2018-11-03T11:09:37.500Z,88.70
2018-11-03T11:10:46.260Z,88.70
2018-11-03T11:11:55.094Z,88.60
2018-11-03T11:13:08.516Z,88.60
2018-11-03T11:14:12.001Z,88.60
2018-11-03T11:15:15.398Z,88.50
2018-11-03T11:16:18.948Z,88.30
2018-11-03T11:17:22.406Z,88.00
2018-11-03T11:18:25.868Z,86.90
2018-11-03T11:19:29.261Z,86.90
2018-11-03T11:20:32.701Z,86.90
2018-11-03T11:21:36.114Z,86.90
2018-11-03T11:22:39.540Z,86.90
2018-11-03T11:23:43.023Z,86.90
2018-11-03T11:24:46.758Z,87.10
2018-11-03T11:25:50.003Z,87.10
2018-11-03T11:26:53.515Z,86.70
2018-11-03T11:27:57.160Z,86.60
2018-11-03T11:29:00.573Z,86.50
2018-11-03T11:30:04.019Z,86.40
2018-11-03T11:31:07.436Z,86.20
2018-11-03T11:32:10.795Z,86.10
2018-11-03T11:33:15.414Z,86.10
2018-11-03T11:34:19.656Z,86.10
2018-11-03T11:35:23.066Z,86.30
2018-11-03T11:36:26.468Z,86.30
2018-11-03T11:37:29.906Z,86.00
2018-11-03T11:38:33.306Z,85.90
2018-11-03T11:39:36.664Z,85.80
2018-11-03T11:40:40.437Z,85.90
2018-11-03T11:41:43.935Z,85.80
2018-11-03T11:42:47.488Z,85.80
2018-11-03T11:43:50.813Z,85.80
2018-11-03T11:44:54.255Z,85.80
2018-11-03T11:45:57.695Z,85.80
2018-11-03T11:47:01.070Z,85.20
2018-11-03T11:48:04.466Z,85.10
2018-11-03T11:49:07.964Z,85.90
2018-11-03T11:50:11.353Z,85.20
2018-11-03T11:51:14.800Z,85.00
2018-11-03T11:52:18.207Z,84.80
2018-11-03T11:53:21.588Z,84.60
2018-11-03T11:54:25.041Z,84.60
2018-11-03T11:55:28.445Z,84.70
2018-11-03T11:56:31.831Z,84.70
2018-11-03T11:57:35.244Z,84.80
2018-11-03T11:58:38.629Z,84.80
2018-11-03T11:59:42.213Z,84.30
2018-11-03T12:00:45.666Z,85.00
2018-11-03T12:01:49.035Z,85.00
2018-11-03T12:02:52.467Z,85.10
2018-11-03T12:03:55.924Z,85.00
2018-11-03T12:04:59.425Z,85.00
2018-11-03T12:06:02.808Z,84.90
2018-11-03T12:07:06.220Z,84.90
2018-11-03T12:08:09.666Z,84.90
2018-11-03T12:09:13.052Z,85.00
2018-11-03T12:10:16.570Z,84.70
2018-11-03T12:11:19.929Z,84.50
2018-11-03T12:12:23.517Z,84.60
2018-11-03T12:13:26.944Z,84.50
2018-11-03T12:14:30.317Z,84.30
2018-11-03T12:15:33.780Z,84.00
2018-11-03T12:16:37.208Z,84.00
2018-11-03T12:17:40.818Z,83.50
2018-11-03T12:18:44.244Z,83.40
2018-11-03T12:19:47.645Z,83.30
2018-11-03T12:20:51.034Z,83.20
2018-11-03T12:21:54.464Z,83.20
2018-11-03T12:22:57.841Z,83.30
2018-11-03T12:24:01.284Z,83.30
2018-11-03T12:25:05.040Z,82.60
2018-11-03T12:26:08.650Z,83.10
2018-11-03T12:27:12.031Z,83.00
2018-11-03T12:28:15.424Z,83.00
2018-11-03T12:29:18.832Z,83.00
2018-11-03T12:30:22.233Z,82.90
2018-11-03T12:31:25.628Z,82.90
2018-11-03T12:32:29.016Z,82.90
2018-11-03T12:33:32.460Z,82.70
2018-11-03T12:34:35.897Z,83.10
2018-11-03T12:35:39.316Z,83.10
2018-11-03T12:36:42.775Z,82.90
2018-11-03T12:37:46.251Z,82.50
2018-11-03T12:38:49.689Z,82.40
2018-11-03T12:39:53.108Z,82.40
2018-11-03T12:40:56.618Z,82.40
2018-11-03T12:41:59.971Z,82.10
2018-11-03T12:43:03.422Z,81.60
2018-11-03T12:44:06.831Z,81.50
2018-11-03T12:45:10.983Z,81.40
2018-11-03T12:46:14.396Z,81.20
2018-11-03T12:47:17.747Z,81.50
2018-11-03T12:48:21.151Z,80.70
2018-11-03T12:49:24.541Z,80.70
2018-11-03T12:50:27.941Z,80.90
2018-11-03T12:51:31.367Z,81.00
2018-11-03T12:52:34.763Z,81.00
2018-11-03T12:53:38.147Z,80.80
2018-11-03T12:54:41.533Z,80.80
2018-11-03T12:55:44.921Z,80.80
2018-11-03T12:56:48.313Z,80.80
2018-11-03T12:57:51.723Z,80.40
2018-11-03T12:58:55.105Z,80.20
2018-11-03T12:59:58.505Z,80.60
2018-11-03T13:01:02.088Z,79.90
2018-11-03T13:02:06.381Z,79.90
2018-11-03T13:03:09.898Z,79.90
2018-11-03T13:04:13.262Z,79.90
2018-11-03T13:05:16.759Z,79.80
2018-11-03T13:06:20.071Z,79.90
2018-11-03T13:07:23.536Z,79.20
2018-11-03T13:08:26.928Z,78.40
2018-11-03T13:09:30.374Z,77.80
2018-11-03T13:10:33.854Z,77.70
2018-11-03T13:11:37.291Z,77.30
2018-11-03T13:12:41.559Z,76.80
2018-11-03T13:13:45.017Z,76.40
2018-11-03T13:14:48.435Z,76.20
2018-11-03T13:15:51.829Z,76.30
2018-11-03T13:16:55.193Z,76.40
2018-11-03T13:17:58.572Z,76.40
2018-11-03T13:19:02.293Z,76.60
2018-11-03T13:20:07.043Z,76.50
2018-11-03T13:21:10.418Z,76.40
2018-11-03T13:22:13.792Z,76.30
2018-11-03T13:23:17.201Z,76.40
2018-11-03T13:24:20.584Z,76.60
2018-11-03T13:25:23.961Z,76.60
2018-11-03T13:26:27.332Z,76.70
2018-11-03T13:27:30.709Z,76.80
2018-11-03T13:28:34.084Z,76.80
2018-11-03T13:29:37.496Z,76.70
2018-11-03T13:30:40.866Z,76.40
2018-11-03T13:31:44.232Z,76.20
2018-11-03T13:32:47.636Z,75.90
2018-11-03T13:33:51.024Z,76.10
2018-11-03T13:34:54.486Z,76.20
2018-11-03T13:35:57.827Z,76.30
2018-11-03T13:37:01.196Z,76.50
2018-11-03T13:38:04.809Z,76.90